createdAt,value
2019-02-15T00:00:56.692Z,86.40
2019-02-15T00:03:28.460Z,86.67
2019-02-15T00:06:02.729Z,86.84
2019-02-15T00:08:36.621Z,86.94
2019-02-15T00:11:05.523Z,87.71
2019-02-15T00:13:36.113Z,88.23
2019-02-15T00:16:08.600Z,88.04
2019-02-15T00:19:14.540Z,88.09
2019-02-15T00:21:51.343Z,88.11
2019-02-15T00:24:26.137Z,87.66
2019-02-15T00:26:59.451Z,87.30
2019-02-15T00:29:28.344Z,87.44
2019-02-15T00:32:07.960Z,87.29
2019-02-15T00:34:38.431Z,87.13
2019-02-15T00:37:09.116Z,87.04
2019-02-15T00:39:42.462Z,87.67
2019-02-15T00:42:14.826Z,87.13
2019-02-15T00:44:43.725Z,87.01
2019-02-15T00:47:31.903Z,87.47
2019-02-15T00:50:26.335Z,87.07
2019-02-15T00:53:09.631Z,87.70
2019-02-15T00:56:15.521Z,87.35
2019-02-15T00:58:58.372Z,87.51
2019-02-15T01:01:45.707Z,87.28
2019-02-15T01:04:21.035Z,87.53
2019-02-15T01:07:10.749Z,87.62
2019-02-15T01:10:01.635Z,87.58
2019-02-15T01:12:36.027Z,87.68
2019-02-15T01:15:10.695Z,88.00
2019-02-15T01:17:39.651Z,87.54
2019-02-15T01:20:08.620Z,87.91
2019-02-15T01:22:40.590Z,87.91
2019-02-15T01:25:13.931Z,88.27
2019-02-15T01:28:05.412Z,87.98
2019-02-15T01:30:56.243Z,87.37
2019-02-15T01:34:04.439Z,87.46
2019-02-15T01:36:52.206Z,87.66
2019-02-15T01:39:37.977Z,87.57
2019-02-15T01:42:28.519Z,88.41
2019-02-15T01:45:12.122Z,88.53
2019-02-15T01:47:46.780Z,88.44
2019-02-15T01:50:17.265Z,88.40
2019-02-15T01:52:49.273Z,88.41
2019-02-15T01:55:20.168Z,88.54
2019-02-15T01:57:57.089Z,88.54
2019-02-15T02:00:29.330Z,88.65
2019-02-15T02:03:00.008Z,88.68
2019-02-15T02:05:32.026Z,88.79
2019-02-15T02:08:02.438Z,89.01
2019-02-15T02:10:33.048Z,88.71
2019-02-15T02:13:03.199Z,88.21
2019-02-15T02:15:34.498Z,87.90
2019-02-15T02:18:03.817Z,88.51
2019-02-15T02:20:38.331Z,88.32
2019-02-15T02:23:10.364Z,88.46
2019-02-15T02:25:41.516Z,88.15
2019-02-15T02:28:11.101Z,88.36
2019-02-15T02:30:44.577Z,88.53
2019-02-15T02:33:13.355Z,88.35
2019-02-15T02:35:44.349Z,88.41
2019-02-15T02:38:13.313Z,88.18
2019-02-15T02:41:03.117Z,88.13
2019-02-15T02:43:33.577Z,88.17
2019-02-15T02:46:05.658Z,87.93
2019-02-15T02:48:36.975Z,88.19
2019-02-15T02:51:06.107Z,88.41
2019-02-15T02:53:35.035Z,88.44
2019-02-15T02:56:08.819Z,88.84
2019-02-15T02:58:40.580Z,88.44
2019-02-15T03:01:11.617Z,88.27
2019-02-15T03:03:44.568Z,87.99
2019-02-15T03:06:16.562Z,88.25
2019-02-15T03:08:50.187Z,88.36
2019-02-15T03:11:22.318Z,89.02
2019-02-15T03:13:54.391Z,88.92
2019-02-15T03:16:26.450Z,88.69
2019-02-15T03:18:55.349Z,88.79
2019-02-15T03:21:25.803Z,88.74
2019-02-15T03:23:56.518Z,88.87
2019-02-15T03:26:30.651Z,88.61
2019-02-15T03:28:59.893Z,89.02
2019-02-15T03:31:29.815Z,89.03
2019-02-15T03:34:03.371Z,88.63
2019-02-15T03:36:48.313Z,88.65
2019-02-15T03:39:32.626Z,88.58
2019-02-15T03:42:06.874Z,88.88
2019-02-15T03:44:43.838Z,88.52
2019-02-15T03:47:21.458Z,88.44
2019-02-15T03:49:58.620Z,88.87
2019-02-15T03:52:29.720Z,89.15
2019-02-15T03:55:00.398Z,87.93
2019-02-15T03:57:30.697Z,88.04
2019-02-15T04:00:02.963Z,88.07
2019-02-15T04:02:38.203Z,87.97
2019-02-15T04:05:11.885Z,87.74
2019-02-15T04:07:42.415Z,87.73
2019-02-15T04:10:14.533Z,88.94
2019-02-15T04:12:44.857Z,88.71
2019-02-15T04:15:13.937Z,88.95
2019-02-15T04:17:48.289Z,89.02
2019-02-15T04:20:20.395Z,88.97
2019-02-15T04:22:51.044Z,89.04
2019-02-15T04:25:20.007Z,88.65
2019-02-15T04:27:59.435Z,88.54
2019-02-15T04:30:39.186Z,88.34
2019-02-15T04:33:22.969Z,88.41
2019-02-15T04:35:58.295Z,88.65
2019-02-15T04:38:54.923Z,88.92
2019-02-15T04:41:33.563Z,88.89
2019-02-15T04:44:17.731Z,88.31
2019-02-15T04:46:58.335Z,87.95
2019-02-15T04:49:31.837Z,87.91
2019-02-15T04:52:02.540Z,87.93
2019-02-15T04:54:31.111Z,88.00
2019-02-15T04:57:01.908Z,88.39
2019-02-15T04:59:33.832Z,88.00
2019-02-15T05:02:03.891Z,88.50
2019-02-15T05:04:39.189Z,89.18
2019-02-15T05:07:10.540Z,89.64
2019-02-15T05:09:41.963Z,88.76
2019-02-15T05:12:17.310Z,88.59
2019-02-15T05:14:53.150Z,88.57
2019-02-15T05:17:22.023Z,88.24
2019-02-15T05:19:52.927Z,88.73
2019-02-15T05:22:25.210Z,89.50
2019-02-15T05:24:55.854Z,89.68
2019-02-15T05:27:26.377Z,89.82
2019-02-15T05:29:59.889Z,89.73
2019-02-15T05:32:32.270Z,89.41
2019-02-15T05:35:03.240Z,89.05
2019-02-15T05:37:32.603Z,89.40
2019-02-15T05:40:05.480Z,89.23
2019-02-15T05:42:37.492Z,89.53
2019-02-15T05:45:07.897Z,89.52
2019-02-15T05:47:38.379Z,89.59
2019-02-15T05:50:11.730Z,89.70
2019-02-15T05:52:40.831Z,90.04
2019-02-15T05:55:16.504Z,90.03
2019-02-15T05:57:47.356Z,89.80
2019-02-15T06:00:19.644Z,90.02
2019-02-15T06:02:52.258Z,90.25
2019-02-15T06:05:23.298Z,90.12
2019-02-15T06:07:54.170Z,90.23
2019-02-15T06:10:24.530Z,90.08
2019-02-15T06:12:56.906Z,89.89
2019-02-15T06:15:28.238Z,89.75
2019-02-15T06:17:58.941Z,89.46
2019-02-15T06:20:32.789Z,89.70
2019-02-15T06:23:01.690Z,89.69
2019-02-15T06:25:32.461Z,89.68
2019-02-15T06:28:06.115Z,89.60
2019-02-15T06:30:39.314Z,89.26
2019-02-15T06:33:09.745Z,89.08
2019-02-15T06:35:45.878Z,88.88
2019-02-15T06:38:17.695Z,88.81
2019-02-15T06:40:48.562Z,88.61
2019-02-15T06:43:20.948Z,88.42
2019-02-15T06:45:52.573Z,89.00
2019-02-15T06:48:22.881Z,88.96
2019-02-15T06:50:54.851Z,88.68
2019-02-15T06:53:30.021Z,88.73
2019-02-15T06:55:58.610Z,88.72
2019-02-15T06:58:27.619Z,88.50
2019-02-15T07:01:23.279Z,88.40
2019-02-15T07:04:07.308Z,88.88
2019-02-15T07:06:40.199Z,89.09
2019-02-15T07:09:15.267Z,89.53
2019-02-15T07:11:46.220Z,89.27
2019-02-15T07:14:15.478Z,89.45
2019-02-15T07:16:49.927Z,89.09
2019-02-15T07:19:25.727Z,88.87
2019-02-15T07:21:58.751Z,88.53
2019-02-15T07:24:34.229Z,88.17
2019-02-15T07:27:07.471Z,87.82
2019-02-15T07:29:41.687Z,88.30
2019-02-15T07:32:15.446Z,87.10
2019-02-15T07:34:47.441Z,85.97
2019-02-15T07:37:22.790Z,84.77
2019-02-15T07:39:52.868Z,83.41
2019-02-15T07:42:21.704Z,82.52
2019-02-15T07:44:56.725Z,82.17
2019-02-15T07:47:26.964Z,82.60
2019-02-15T07:50:02.194Z,82.43
2019-02-15T07:52:32.436Z,82.44
2019-02-15T07:55:01.526Z,83.16
2019-02-15T07:57:35.424Z,83.37
2019-02-15T08:00:04.926Z,82.32
2019-02-15T08:02:33.832Z,81.80
2019-02-15T08:05:07.133Z,81.71
2019-02-15T08:07:41.569Z,81.39
2019-02-15T08:10:13.604Z,81.36
2019-02-15T08:12:42.813Z,81.71
2019-02-15T08:15:11.577Z,80.80
2019-02-15T08:17:42.049Z,80.89
2019-02-15T08:20:15.096Z,80.62
2019-02-15T08:22:48.647Z,80.54
2019-02-15T08:25:20.778Z,80.25
2019-02-15T08:27:50.915Z,79.92
2019-02-15T08:30:22.927Z,79.69
2019-02-15T08:32:51.984Z,79.22
2019-02-15T08:35:24.320Z,79.05
2019-02-15T08:37:56.866Z,78.80
2019-02-15T08:40:28.664Z,78.72
2019-02-15T08:42:57.959Z,78.33
2019-02-15T08:45:27.040Z,78.03
2019-02-15T08:47:59.836Z,77.93
2019-02-15T08:50:30.087Z,77.19
2019-02-15T08:53:05.338Z,77.19
2019-02-15T08:55:35.272Z,77.53
2019-02-15T08:58:04.251Z,77.19
2019-02-15T09:00:37.810Z,77.14
2019-02-15T09:03:10.124Z,76.17
2019-02-15T09:05:46.231Z,76.35
2019-02-15T09:08:14.829Z,75.90
2019-02-15T09:10:43.572Z,76.42
2019-02-15T09:13:12.454Z,76.55
2019-02-15T09:15:44.991Z,75.51
2019-02-15T09:18:18.099Z,75.41
2019-02-15T09:20:50.144Z,74.81
2019-02-15T09:23:20.813Z,74.69
2019-02-15T09:25:52.786Z,73.84
2019-02-15T09:28:29.277Z,73.38
2019-02-15T09:30:59.144Z,73.08
2019-02-15T09:33:29.905Z,73.96
2019-02-15T09:35:58.466Z,72.85
2019-02-15T09:38:30.735Z,72.53
2019-02-15T09:41:01.374Z,72.26
2019-02-15T09:43:30.371Z,71.46
2019-02-15T09:46:19.500Z,71.95
2019-02-15T09:48:43.064Z,72.33
2019-02-15T09:51:12.284Z,72.23
2019-02-15T09:53:46.200Z,71.60
2019-02-15T09:56:20.925Z,71.63
2019-02-15T09:58:51.312Z,71.46
2019-02-15T10:01:26.166Z,70.95
2019-02-15T10:03:57.018Z,70.28
2019-02-15T10:06:28.765Z,70.75
2019-02-15T10:09:01.689Z,70.62
2019-02-15T10:11:30.415Z,70.77
2019-02-15T10:13:59.334Z,70.26
2019-02-15T10:16:32.833Z,69.22
2019-02-15T10:19:06.200Z,69.20
2019-02-15T10:21:36.482Z,67.70
2019-02-15T10:24:05.583Z,69.17
2019-02-15T10:26:34.122Z,69.24
2019-02-15T10:29:06.527Z,68.21
2019-02-15T10:31:38.207Z,67.34
2019-02-15T10:34:09.234Z,67.44
2019-02-15T10:36:40.204Z,66.86
2019-02-15T10:39:12.429Z,66.85
2019-02-15T10:41:41.610Z,66.61
2019-02-15T10:44:14.297Z,66.21
2019-02-15T10:46:44.672Z,64.61
2019-02-15T10:49:19.014Z,64.36
2019-02-15T10:51:47.565Z,64.01
2019-02-15T10:54:19.755Z,63.96
2019-02-15T10:56:48.294Z,63.70
2019-02-15T10:59:19.419Z,62.22
2019-02-15T11:01:48.124Z,61.92
2019-02-15T11:04:19.941Z,60.78
2019-02-15T11:06:55.675Z,60.70
2019-02-15T11:09:26.131Z,55.33
2019-02-15T11:11:59.330Z,57.68
2019-02-15T11:14:27.894Z,59.82
2019-02-15T11:16:57.012Z,55.27
2019-02-15T11:19:29.900Z,55.27
2019-02-15T11:21:59.962Z,51.76
2019-02-15T11:24:28.921Z,58.18
2019-02-15T11:26:58.019Z,50.63
2019-02-15T11:29:32.660Z,51.83
2019-02-15T11:32:04.808Z,56.66
2019-02-15T11:34:37.108Z,50.78
2019-02-15T11:37:08.915Z,49.28
2019-02-15T11:39:42.319Z,47.55
2019-02-15T11:42:13.390Z,46.61
2019-02-15T11:44:43.320Z,47.31
2019-02-15T11:47:11.865Z,46.37
2019-02-15T11:49:47.181Z,45.49
2019-02-15T11:52:15.732Z,45.70
2019-02-15T11:54:47.788Z,45.76
2019-02-15T11:57:21.249Z,45.16
2019-02-15T11:59:53.332Z,45.58
2019-02-15T12:02:27.171Z,45.09
2019-02-15T12:04:57.623Z,45.89
2019-02-15T12:07:26.476Z,44.70
2019-02-15T12:10:00.764Z,44.07
2019-02-15T12:12:32.853Z,43.93
2019-02-15T12:15:07.873Z,43.91
2019-02-15T12:17:39.767Z,43.44
2019-02-15T12:20:12.262Z,44.10
2019-02-15T12:22:46.195Z,43.65
2019-02-15T12:25:20.199Z,43.51
2019-02-15T12:27:52.122Z,44.02
2019-02-15T12:30:40.189Z,44.03
2019-02-15T12:33:10.580Z,43.93
2019-02-15T12:35:39.305Z,43.77
2019-02-15T12:38:12.948Z,43.20
2019-02-15T12:40:42.664Z,43.05
2019-02-15T12:43:11.591Z,42.89
2019-02-15T12:45:49.674Z,43.19
2019-02-15T12:48:20.491Z,43.23
2019-02-15T12:50:52.484Z,43.36
2019-02-15T12:53:25.147Z,43.64
2019-02-15T12:55:57.840Z,43.26
2019-02-15T12:58:29.968Z,42.73
2019-02-15T13:01:02.090Z,42.98
2019-02-15T13:03:30.994Z,43.41
2019-02-15T13:06:00.289Z,41.71
2019-02-15T13:08:33.298Z,41.31
2019-02-15T13:11:03.449Z,40.95
2019-02-15T13:13:37.076Z,41.31
2019-02-15T13:16:11.721Z,41.59
2019-02-15T13:18:43.834Z,41.23
2019-02-15T13:21:16.711Z,41.23
2019-02-15T13:23:47.712Z,41.45
2019-02-15T13:26:24.855Z,40.96
2019-02-15T13:28:57.008Z,40.95
2019-02-15T13:31:26.350Z,40.82
2019-02-15T13:33:57.261Z,40.47
2019-02-15T13:36:27.958Z,40.92
2019-02-15T13:39:00.417Z,39.70
2019-02-15T13:41:33.015Z,39.83
2019-02-15T13:44:04.789Z,39.99
2019-02-15T13:46:35.595Z,40.04
2019-02-15T13:49:06.421Z,39.86
2019-02-15T13:51:38.815Z,40.26
2019-02-15T13:54:14.012Z,41.59
2019-02-15T13:56:47.653Z,41.21
2019-02-15T13:59:19.585Z,42.75
2019-02-15T14:01:53.359Z,41.07
2019-02-15T14:04:22.909Z,40.60
2019-02-15T14:06:58.849Z,44.15
2019-02-15T14:09:29.613Z,43.65
2019-02-15T14:11:58.826Z,43.77
2019-02-15T14:14:29.623Z,41.57
2019-02-15T14:16:58.777Z,43.27
2019-02-15T14:19:33.735Z,43.85
2019-02-15T14:22:04.220Z,41.29
2019-02-15T14:24:39.136Z,40.46
2019-02-15T14:27:08.284Z,38.77
2019-02-15T14:29:40.718Z,38.58
2019-02-15T14:32:14.831Z,37.98
2019-02-15T14:34:48.713Z,39.01
2019-02-15T14:37:19.446Z,38.65
2019-02-15T14:39:53.332Z,38.01
2019-02-15T14:42:28.687Z,37.54
2019-02-15T14:45:08.875Z,38.33
2019-02-15T14:47:40.005Z,40.20
2019-02-15T14:50:15.773Z,39.90
2019-02-15T14:52:49.060Z,39.65
2019-02-15T14:55:21.940Z,39.17
2019-02-15T14:57:54.240Z,38.93
2019-02-15T15:00:29.794Z,39.53
2019-02-15T15:03:04.420Z,39.35
2019-02-15T15:05:41.986Z,39.77
2019-02-15T15:08:15.235Z,38.34
2019-02-15T15:10:44.539Z,38.23
2019-02-15T15:13:41.654Z,37.63
2019-02-15T15:16:14.354Z,38.39
2019-02-15T15:18:45.022Z,37.79
2019-02-15T15:21:27.908Z,38.29
2019-02-15T15:23:58.863Z,38.66
2019-02-15T15:26:33.347Z,38.64
2019-02-15T15:29:05.609Z,39.27
2019-02-15T15:31:34.899Z,39.26
2019-02-15T15:34:04.586Z,39.85
2019-02-15T15:36:34.968Z,39.75
2019-02-15T15:39:07.057Z,40.94
2019-02-15T15:41:36.295Z,41.04
2019-02-15T15:44:07.091Z,41.51
2019-02-15T15:46:40.787Z,41.89
2019-02-15T15:49:12.096Z,42.06
2019-02-15T15:51:43.090Z,42.26
2019-02-15T15:54:17.740Z,42.86
2019-02-15T15:56:50.789Z,43.66
2019-02-15T15:59:20.257Z,43.57
2019-02-15T16:01:50.835Z,44.83
2019-02-15T16:04:19.381Z,46.10
2019-02-15T16:06:52.717Z,46.86
2019-02-15T16:09:21.437Z,47.63
2019-02-15T16:11:50.659Z,47.56
2019-02-15T16:14:23.927Z,48.67
2019-02-15T16:16:57.847Z,49.63
2019-02-15T16:19:28.179Z,51.12
2019-02-15T16:21:58.734Z,52.03
2019-02-15T16:24:31.073Z,54.44
2019-02-15T16:26:59.648Z,55.74
2019-02-15T16:29:28.473Z,55.76
2019-02-15T16:32:00.038Z,56.82
2019-02-15T16:34:31.233Z,57.45
2019-02-15T16:37:03.012Z,57.91
2019-02-15T16:39:33.400Z,58.90
2019-02-15T16:42:04.546Z,59.19
2019-02-15T16:44:36.344Z,59.86
2019-02-15T16:47:05.431Z,60.51
2019-02-15T16:49:39.735Z,61.09
2019-02-15T16:52:12.044Z,61.90
2019-02-15T16:54:43.882Z,61.90
2019-02-15T16:57:16.177Z,62.82
2019-02-15T16:59:46.299Z,62.82
2019-02-15T17:02:18.139Z,62.86
2019-02-15T17:04:46.994Z,63.08
2019-02-15T17:07:15.911Z,63.82
2019-02-15T17:09:44.806Z,63.94
2019-02-15T17:12:18.925Z,63.89
2019-02-15T17:14:50.007Z,64.12
2019-02-15T17:17:24.344Z,64.24
2019-02-15T17:19:54.474Z,64.68
2019-02-15T17:22:25.421Z,64.96
2019-02-15T17:24:54.380Z,65.13
2019-02-15T17:27:26.230Z,65.18
2019-02-15T17:29:58.176Z,65.65
2019-02-15T17:32:28.989Z,65.67
2019-02-15T17:35:02.295Z,65.69
2019-02-15T17:37:34.493Z,65.57
2019-02-15T17:40:05.678Z,66.20
2019-02-15T17:42:36.310Z,66.50
2019-02-15T17:45:09.220Z,66.16
2019-02-15T17:47:39.730Z,66.58
2019-02-15T17:50:12.216Z,67.31
2019-02-15T17:52:42.754Z,68.01
2019-02-15T17:55:11.927Z,68.37
2019-02-15T17:57:42.785Z,68.24
2019-02-15T18:00:11.732Z,68.21
2019-02-15T18:02:43.786Z,68.40
2019-02-15T18:05:17.494Z,68.35
2019-02-15T18:07:48.815Z,68.98
2019-02-15T18:10:19.384Z,69.06
2019-02-15T18:12:52.890Z,69.17
2019-02-15T18:15:23.358Z,69.58
2019-02-15T18:17:55.990Z,69.98
2019-02-15T18:20:32.131Z,70.60
2019-02-15T18:23:02.073Z,70.67
2019-02-15T18:25:37.339Z,70.53
2019-02-15T18:28:09.309Z,70.35
2019-02-15T18:30:47.322Z,69.14
2019-02-15T18:33:19.824Z,68.25
2019-02-15T18:35:52.030Z,69.07
2019-02-15T18:38:21.172Z,70.16
2019-02-15T18:40:51.589Z,70.44
2019-02-15T18:43:20.186Z,70.82
2019-02-15T18:45:48.918Z,70.82
2019-02-15T18:48:40.313Z,71.11
2019-02-15T18:51:09.116Z,71.85
2019-02-15T18:53:42.790Z,72.26
2019-02-15T18:56:11.041Z,72.43
2019-02-15T18:58:44.211Z,73.07
2019-02-15T19:01:23.159Z,72.83
2019-02-15T19:03:55.093Z,72.89
2019-02-15T19:06:27.915Z,72.04
2019-02-15T19:08:57.040Z,71.87
2019-02-15T19:11:26.069Z,72.88
2019-02-15T19:14:02.716Z,73.19
2019-02-15T19:16:35.240Z,73.56
2019-02-15T19:19:09.173Z,73.71
2019-02-15T19:21:37.957Z,73.68
2019-02-15T19:24:06.558Z,74.30
2019-02-15T19:26:39.944Z,74.95
2019-02-15T19:29:10.895Z,75.65
2019-02-15T19:31:46.136Z,75.22
2019-02-15T19:34:15.375Z,75.11
2019-02-15T19:36:48.619Z,75.17
2019-02-15T19:39:22.751Z,75.50
2019-02-15T19:41:55.113Z,75.96
2019-02-15T19:44:26.794Z,76.14
2019-02-15T19:46:59.952Z,76.16
2019-02-15T19:49:38.235Z,76.34
2019-02-15T19:52:04.835Z,75.82
2019-02-15T19:54:35.772Z,76.32
2019-02-15T19:57:09.391Z,76.56
2019-02-15T19:59:53.361Z,77.10
2019-02-15T20:02:15.542Z,77.56
2019-02-15T20:04:44.658Z,78.11
2019-02-15T20:07:14.614Z,78.21
2019-02-15T20:09:43.379Z,78.37
2019-02-15T20:12:15.868Z,78.25
2019-02-15T20:14:47.242Z,78.17
2019-02-15T20:17:18.223Z,78.44
2019-02-15T20:19:51.063Z,78.89
2019-02-15T20:22:21.634Z,78.64
2019-02-15T20:25:01.566Z,78.24
2019-02-15T20:27:38.255Z,78.24
2019-02-15T20:30:17.329Z,78.56
2019-02-15T20:32:51.434Z,78.44
2019-02-15T20:35:21.882Z,77.93
2019-02-15T20:37:50.810Z,78.57
2019-02-15T20:40:20.882Z,78.64
2019-02-15T20:42:52.687Z,78.69
2019-02-15T20:45:22.030Z,78.93
2019-02-15T20:47:52.530Z,79.38
2019-02-15T20:50:22.821Z,79.64
2019-02-15T20:52:58.151Z,79.44
2019-02-15T20:55:32.645Z,79.76
2019-02-15T20:58:04.572Z,79.85
2019-02-15T21:00:38.282Z,79.98
2019-02-15T21:03:14.364Z,80.69
2019-02-15T21:05:45.602Z,80.67
2019-02-15T21:08:17.661Z,80.66
2019-02-15T21:10:55.088Z,80.85
2019-02-15T21:13:28.743Z,80.70
2019-02-15T21:15:58.871Z,81.61
2019-02-15T21:18:28.936Z,81.28
2019-02-15T21:20:59.696Z,81.61
2019-02-15T21:23:48.456Z,81.88
2019-02-15T21:26:18.808Z,82.15
2019-02-15T21:28:50.477Z,81.76
2019-02-15T21:31:21.591Z,81.83
2019-02-15T21:33:53.896Z,82.02
2019-02-15T21:36:26.468Z,82.33
2019-02-15T21:38:55.365Z,82.01
2019-02-15T21:41:33.980Z,82.28
2019-02-15T21:44:06.046Z,82.55
2019-02-15T21:46:34.991Z,82.77
2019-02-15T21:49:05.697Z,83.46
2019-02-15T21:51:35.109Z,82.75
2019-02-15T21:54:07.637Z,81.85
2019-02-15T21:56:43.187Z,81.75
2019-02-15T21:59:15.591Z,82.52
2019-02-15T22:01:52.601Z,82.53
2019-02-15T22:04:23.874Z,83.10
2019-02-15T22:06:56.271Z,83.14
2019-02-15T22:09:31.328Z,83.19
2019-02-15T22:12:03.527Z,84.35
2019-02-15T22:14:37.688Z,84.60
2019-02-15T22:17:09.909Z,84.33
2019-02-15T22:19:40.141Z,83.70
2019-02-15T22:22:11.953Z,83.61
2019-02-15T22:24:40.907Z,83.24
2019-02-15T22:27:15.058Z,83.44
2019-02-15T22:29:45.705Z,84.05
2019-02-15T22:32:14.758Z,84.23
2019-02-15T22:34:46.515Z,83.71
2019-02-15T22:37:22.063Z,83.75
2019-02-15T22:39:55.265Z,83.14
2019-02-15T22:42:24.482Z,82.84
2019-02-15T22:44:53.951Z,83.23
2019-02-15T22:47:24.379Z,83.87
2019-02-15T22:49:55.188Z,83.95
2019-02-15T22:52:26.212Z,82.80
2019-02-15T22:54:58.257Z,83.05
2019-02-15T22:57:28.962Z,82.62
2019-02-15T23:00:12.640Z,82.35
2019-02-15T23:02:36.186Z,82.07
2019-02-15T23:05:04.782Z,82.30
2019-02-15T23:07:38.588Z,82.88
2019-02-15T23:10:11.544Z,82.97
2019-02-15T23:12:40.659Z,82.35
2019-02-15T23:15:09.221Z,81.59
2019-02-15T23:17:38.156Z,81.21
2019-02-15T23:20:11.749Z,81.36
2019-02-15T23:22:45.200Z,80.21
2019-02-15T23:25:16.099Z,79.84
2019-02-15T23:27:46.740Z,79.63
2019-02-15T23:30:15.681Z,79.98
2019-02-15T23:32:44.796Z,80.50
2019-02-15T23:35:13.339Z,82.49
2019-02-15T23:37:46.369Z,83.71
2019-02-15T23:40:15.254Z,84.06
2019-02-15T23:42:44.208Z,83.40
2019-02-15T23:45:17.705Z,83.63
2019-02-15T23:47:45.520Z,84.17
2019-02-15T23:50:16.347Z,84.32
2019-02-15T23:52:45.597Z,83.44
2019-02-15T23:55:18.344Z,83.44
2019-02-15T23:57:50.200Z,83.94
